Time;durP1;ratioP1;P1;durP2;ratioP2;P2;SDS_P1;SDS_P2;PMS_P1;PMS_P2;Temp;Humidity;BMP_temperature;BMP_pressure;BME280_temperature;BME280_humidity;BME280_pressure;Samples;Min_cycle;Max_cycle;Signal;HPM_P1;HPM_P2
2023/03/25 00:02:04;;;;;;;;;;;10.20;99.90;;;;;;5024235;28;19987;-64
2023/03/25 00:04:29;;;;;;;;;;;10.20;99.90;;;;;;5025262;28;19921;-63
2023/03/25 00:06:55;;;;;;;;;;;10.10;99.90;;;;;;5023897;28;20408;-65
2023/03/25 00:09:21;;;;;;;;;;;10.10;99.90;;;;;;5025308;28;19936;-65
2023/03/25 00:11:48;;;;;;;;;;;10.10;99.90;;;;;;5027854;28;19928;-65
2023/03/25 00:14:15;;;;;;;;;;;10.00;99.90;;;;;;5026789;28;19913;-64
2023/03/25 00:16:41;;;;;;;;;;;10.10;99.90;;;;;;5027784;28;19921;-64
2023/03/25 00:19:08;;;;;;;;;;;10.10;99.90;;;;;;5029915;28;20045;-63
2023/03/25 00:21:34;;;;;;;;;;;10.10;99.90;;;;;;5025170;28;19913;-64
2023/03/25 00:24:00;;;;;;;;;;;10.20;99.90;;;;;;5025609;28;19913;-64
2023/03/25 00:26:28;;;;;;;;;;;10.30;99.90;;;;;;5027026;28;20004;-64
2023/03/25 00:28:54;;;;;;;;;;;10.30;99.90;;;;;;5026820;28;19917;-64
2023/03/25 00:31:20;;;;;;;;;;;10.30;99.90;;;;;;5026912;28;19940;-65
2023/03/25 00:33:45;;;;;;;;;;;10.30;99.90;;;;;;5029586;28;19956;-64
2023/03/25 00:36:13;;;;;;;;;;;10.30;99.90;;;;;;5028567;28;19953;-64
2023/03/25 00:38:40;;;;;;;;;;;10.30;99.90;;;;;;5027953;28;19927;-64
2023/03/25 00:41:08;;;;;;;;;;;10.40;99.90;;;;;;5025612;28;19913;-64
2023/03/25 00:43:34;;;;;;;;;;;10.40;99.90;;;;;;5026819;28;19914;-64
2023/03/25 00:46:00;;;;;;;;;;;10.40;99.90;;;;;;5024972;28;19920;-64
2023/03/25 00:48:26;;;;;;;;;;;10.40;99.90;;;;;;5022236;28;20386;-65
2023/03/25 00:50:51;;;;;;;;;;;10.40;99.90;;;;;;5028618;28;19913;-64
2023/03/25 00:53:17;;;;;;;;;;;10.40;99.90;;;;;;5031733;28;19964;-64
2023/03/25 00:55:42;;;;;;;;;;;10.40;99.90;;;;;;5032102;28;19917;-64
2023/03/25 00:58:08;;;;;;;;;;;10.40;99.90;;;;;;5029675;28;19965;-64
2023/03/25 01:00:33;;;;;;;;;;;10.50;99.90;;;;;;5026876;28;21790;-64
2023/03/25 01:03:02;;;;;;;;;;;10.50;99.90;;;;;;5028229;28;19959;-64
2023/03/25 01:05:28;;;;;;;;;;;10.50;99.90;;;;;;5030011;28;20003;-63
2023/03/25 01:07:54;;;;;;;;;;;10.50;99.90;;;;;;5026903;28;20007;-64
2023/03/25 01:10:20;;;;;;;;;;;10.50;99.90;;;;;;5027863;28;19913;-65
2023/03/25 01:12:45;;;;;;;;;;;10.50;99.90;;;;;;5026604;28;20027;-62
2023/03/25 01:15:11;;;;;;;;;;;10.50;99.90;;;;;;5029353;28;20048;-64
2023/03/25 01:17:36;;;;;;;;;;;10.50;99.90;;;;;;5025428;28;19913;-64
2023/03/25 01:20:04;;;;;;;;;;;10.50;99.90;;;;;;5027885;28;19913;-64
2023/03/25 01:22:30;;;;;;;;;;;10.50;99.90;;;;;;5026946;28;19986;-64
2023/03/25 01:24:56;;;;;;;;;;;10.50;99.90;;;;;;5028480;28;20375;-64
2023/03/25 01:27:23;;;;;;;;;;;10.50;99.90;;;;;;5026202;28;20363;-65
2023/03/25 01:29:49;;;;;;;;;;;10.50;99.90;;;;;;5027806;28;19967;-65
2023/03/25 01:32:14;;;;;;;;;;;10.50;99.90;;;;;;5024964;28;19921;-65
2023/03/25 01:34:41;;;;;;;;;;;10.50;99.90;;;;;;5028864;28;20310;-65
2023/03/25 01:37:08;;;;;;;;;;;10.40;99.90;;;;;;5028468;28;19917;-65
2023/03/25 01:39:34;;;;;;;;;;;10.50;99.90;;;;;;5028381;28;19913;-65
2023/03/25 01:41:59;;;;;;;;;;;10.40;99.90;;;;;;5026210;28;20457;-64
2023/03/25 01:44:26;;;;;;;;;;;10.50;99.90;;;;;;5026352;28;19914;-64
2023/03/25 01:46:52;;;;;;;;;;;10.40;99.90;;;;;;5026146;28;19913;-63
2023/03/25 01:49:28;;;;;;;;;;;10.50;99.90;;;;;;5027649;28;19962;-65
2023/03/25 01:52:01;;;;;;;;;;;10.50;99.90;;;;;;5030353;28;19925;-64
2023/03/25 01:54:27;;;;;;;;;;;10.40;99.90;;;;;;5031479;28;19913;-65
2023/03/25 01:56:53;;;;;;;;;;;10.40;99.90;;;;;;5032369;28;20007;-63
2023/03/25 01:59:19;;;;;;;;;;;10.40;99.90;;;;;;5030135;28;20376;-64
2023/03/25 02:01:45;;;;;;;;;;;10.40;99.90;;;;;;5030790;28;19913;-65
2023/03/25 02:04:12;;;;;;;;;;;10.30;99.90;;;;;;5032897;28;19921;-64
2023/03/25 02:06:49;;;;;;;;;;;10.10;99.90;;;;;;5032077;28;19917;-64
2023/03/25 02:09:16;;;;;;;;;;;10.10;99.90;;;;;;5031130;28;19913;-64
2023/03/25 02:11:42;;;;;;;;;;;10.10;99.90;;;;;;5031530;28;20322;-63
2023/03/25 02:14:09;;;;;;;;;;;10.10;99.90;;;;;;5031547;28;20012;-64
2023/03/25 02:16:41;;;;;;;;;;;10.10;99.90;;;;;;5030474;28;19920;-63
2023/03/25 02:19:25;;;;;;;;;;;10.00;99.90;;;;;;5029752;28;19920;-64
2023/03/25 02:22:10;;;;;;;;;;;10.00;99.90;;;;;;5029092;28;19921;-65
2023/03/25 02:24:56;;;;;;;;;;;10.00;99.90;;;;;;5029518;28;19917;-65
2023/03/25 02:27:32;;;;;;;;;;;9.90;99.90;;;;;;5030251;28;19974;-64
2023/03/25 02:30:10;;;;;;;;;;;9.80;99.90;;;;;;5028937;28;20291;-65
2023/03/25 02:32:56;;;;;;;;;;;9.60;99.90;;;;;;5030468;28;19917;-63
2023/03/25 02:35:21;;;;;;;;;;;9.60;99.90;;;;;;5029999;28;20004;-64
2023/03/25 02:38:05;;;;;;;;;;;9.50;99.90;;;;;;5028416;28;19992;-64
2023/03/25 02:40:54;;;;;;;;;;;9.40;99.90;;;;;;5029322;28;19967;-65
2023/03/25 02:43:38;;;;;;;;;;;9.20;99.90;;;;;;5030743;28;19959;-64
2023/03/25 02:46:08;;;;;;;;;;;9.20;99.90;;;;;;5026348;28;20336;-63
2023/03/25 02:48:34;;;;;;;;;;;9.10;99.90;;;;;;5026333;28;19913;-64
2023/03/25 02:51:03;;;;;;;;;;;9.00;99.90;;;;;;5031083;28;19940;-65
2023/03/25 02:53:32;;;;;;;;;;;8.90;99.90;;;;;;5030866;28;19913;-65
2023/03/25 02:55:59;;;;;;;;;;;8.90;99.90;;;;;;5029207;28;19924;-65
2023/03/25 02:58:26;;;;;;;;;;;9.00;99.90;;;;;;5027767;28;19952;-65
2023/03/25 03:00:52;;;;;;;;;;;9.00;99.90;;;;;;5022609;28;19913;-65
2023/03/25 03:03:18;;;;;;;;;;;9.00;99.90;;;;;;5027468;28;19917;-65
2023/03/25 03:05:45;;;;;;;;;;;9.00;99.90;;;;;;5029260;28;19975;-64
2023/03/25 03:08:20;;;;;;;;;;;9.00;99.90;;;;;;5025168;28;19921;-64
2023/03/25 03:10:51;;;;;;;;;;;9.00;99.90;;;;;;5029776;28;19932;-64
2023/03/25 03:13:42;;;;;;;;;;;9.20;99.90;;;;;;5028929;28;19921;-65
2023/03/25 03:16:12;;;;;;;;;;;9.10;99.90;;;;;;5028485;28;20437;-65
2023/03/25 03:19:01;;;;;;;;;;;9.10;99.90;;;;;;5021548;28;19920;-64
2023/03/25 03:21:37;;;;;;;;;;;9.20;99.90;;;;;;5029895;28;20284;-63
2023/03/25 03:24:14;;;;;;;;;;;9.10;99.90;;;;;;5027803;28;19935;-65
2023/03/25 03:26:46;;;;;;;;;;;9.30;99.90;;;;;;5028880;28;20387;-65
2023/03/25 03:29:16;;;;;;;;;;;9.20;99.90;;;;;;5027505;28;19923;-65
2023/03/25 03:31:41;;;;;;;;;;;9.30;99.90;;;;;;5028805;28;19925;-64
2023/03/25 03:34:13;;;;;;;;;;;9.30;99.90;;;;;;5030305;28;20402;-64
2023/03/25 03:36:43;;;;;;;;;;;9.30;99.90;;;;;;5027162;28;19913;-65
2023/03/25 03:39:18;;;;;;;;;;;9.30;99.90;;;;;;5028023;28;19913;-65
2023/03/25 03:41:46;;;;;;;;;;;9.30;99.90;;;;;;5028695;28;19921;-64
2023/03/25 03:44:13;;;;;;;;;;;9.20;99.90;;;;;;5027868;28;19983;-64
2023/03/25 03:46:44;;;;;;;;;;;9.10;99.90;;;;;;5027642;28;20011;-64
2023/03/25 03:49:12;;;;;;;;;;;9.20;99.90;;;;;;5024908;28;19917;-65
2023/03/25 03:51:41;;;;;;;;;;;9.20;99.90;;;;;;5025946;28;20450;-64
2023/03/25 03:54:14;;;;;;;;;;;9.20;99.90;;;;;;5028738;28;19971;-64
2023/03/25 03:56:45;;;;;;;;;;;9.20;99.90;;;;;;5026302;28;19978;-64
2023/03/25 03:59:14;;;;;;;;;;;9.20;99.90;;;;;;5027537;28;20371;-65
2023/03/25 04:01:44;;;;;;;;;;;9.20;99.90;;;;;;5026135;28;20360;-65
2023/03/25 04:04:12;;;;;;;;;;;9.30;99.90;;;;;;5029463;28;19913;-67
2023/03/25 04:06:43;;;;;;;;;;;9.40;99.90;;;;;;5029575;28;19967;-64
2023/03/25 04:09:26;;;;;;;;;;;9.40;99.90;;;;;;5020622;28;20051;-65
2023/03/25 04:12:03;;;;;;;;;;;9.40;99.90;;;;;;5027839;28;19921;-66
2023/03/25 04:14:29;;;;;;;;;;;9.40;99.90;;;;;;5029259;28;19944;-63
2023/03/25 04:16:54;;;;;;;;;;;9.40;99.90;;;;;;5031678;28;19960;-63
2023/03/25 04:19:20;;;;;;;;;;;9.40;99.90;;;;;;5041872;28;19971;-64
2023/03/25 04:21:48;;;;;;;;;;;9.40;99.90;;;;;;5033371;28;20303;-64
2023/03/25 04:24:15;;;;;;;;;;;9.40;99.90;;;;;;5031433;28;20330;-64
2023/03/25 04:26:41;;;;;;;;;;;9.40;99.90;;;;;;5031061;28;20806;-65
2023/03/25 04:29:08;;;;;;;;;;;9.40;99.90;;;;;;5027863;28;20008;-64
2023/03/25 04:31:33;;;;;;;;;;;9.40;99.90;;;;;;5031715;28;19943;-65
2023/03/25 04:34:01;;;;;;;;;;;9.40;99.90;;;;;;5028730;28;19913;-65
2023/03/25 04:36:36;;;;;;;;;;;9.50;99.90;;;;;;5030067;28;19992;-64
2023/03/25 04:39:02;;;;;;;;;;;9.50;99.90;;;;;;5024387;28;19924;-63
2023/03/25 04:41:28;;;;;;;;;;;9.50;99.90;;;;;;5028710;28;19912;-64
2023/03/25 04:43:53;;;;;;;;;;;9.60;99.90;;;;;;5027661;28;19917;-65
2023/03/25 04:46:19;;;;;;;;;;;9.60;99.90;;;;;;5027790;28;19917;-65
2023/03/25 04:48:44;;;;;;;;;;;9.60;99.90;;;;;;5025515;28;19913;-63
2023/03/25 04:51:11;;;;;;;;;;;9.60;99.90;;;;;;5027879;28;19924;-65
2023/03/25 04:53:37;;;;;;;;;;;9.60;99.90;;;;;;5028800;28;19971;-65
2023/03/25 04:56:03;;;;;;;;;;;9.70;99.90;;;;;;5028405;28;20398;-65
2023/03/25 04:58:29;;;;;;;;;;;9.60;99.90;;;;;;5024888;28;20375;-66
2023/03/25 05:00:54;;;;;;;;;;;9.60;99.90;;;;;;5026774;28;19920;-64
2023/03/25 05:03:23;;;;;;;;;;;9.60;99.90;;;;;;5027206;28;19913;-64
2023/03/25 05:05:52;;;;;;;;;;;9.60;99.90;;;;;;5025643;28;19921;-65
2023/03/25 05:08:20;;;;;;;;;;;9.70;99.90;;;;;;5026747;28;20075;-64
2023/03/25 05:10:46;;;;;;;;;;;9.70;99.90;;;;;;5027184;28;19917;-64
2023/03/25 05:13:11;;;;;;;;;;;9.70;99.90;;;;;;5027904;28;19917;-66
2023/03/25 05:15:40;;;;;;;;;;;9.70;99.90;;;;;;5027074;28;19988;-65
2023/03/25 05:18:08;;;;;;;;;;;9.70;99.90;;;;;;5025108;28;19920;-64
2023/03/25 05:20:36;;;;;;;;;;;9.80;99.90;;;;;;5026816;28;20391;-63
2023/03/25 05:23:03;;;;;;;;;;;9.80;99.90;;;;;;5022829;28;19913;-66
2023/03/25 05:25:33;;;;;;;;;;;9.80;99.90;;;;;;5026554;28;19989;-62
2023/03/25 05:27:59;;;;;;;;;;;9.70;99.90;;;;;;5022775;28;19996;-64
2023/03/25 05:30:31;;;;;;;;;;;9.70;99.90;;;;;;5026562;28;19921;-65
2023/03/25 05:32:58;;;;;;;;;;;9.80;99.90;;;;;;5023693;28;20019;-64
2023/03/25 05:35:25;;;;;;;;;;;9.80;99.90;;;;;;5025397;28;19921;-66
2023/03/25 05:37:51;;;;;;;;;;;9.80;99.90;;;;;;5028918;28;19997;-65
2023/03/25 05:40:17;;;;;;;;;;;9.80;99.90;;;;;;5027647;28;21715;-65
2023/03/25 05:42:47;;;;;;;;;;;9.80;99.90;;;;;;5028509;28;19921;-65
2023/03/25 05:45:14;;;;;;;;;;;9.80;99.90;;;;;;5024713;28;19955;-65
2023/03/25 05:47:40;;;;;;;;;;;9.80;99.90;;;;;;5024128;28;20450;-65
2023/03/25 05:50:07;;;;;;;;;;;9.80;99.90;;;;;;5024437;28;20000;-64
2023/03/25 05:52:32;;;;;;;;;;;9.90;99.90;;;;;;5026902;28;19967;-64
2023/03/25 05:54:58;;;;;;;;;;;9.90;99.90;;;;;;5028555;28;19968;-65
2023/03/25 05:57:23;;;;;;;;;;;9.80;99.90;;;;;;5025522;28;19925;-64
2023/03/25 05:59:48;;;;;;;;;;;9.80;99.90;;;;;;5027793;28;19913;-65
2023/03/25 06:02:15;;;;;;;;;;;9.90;99.90;;;;;;5025564;28;20375;-64
2023/03/25 06:04:41;;;;;;;;;;;9.90;99.90;;;;;;5024475;28;19919;-65
2023/03/25 06:07:12;;;;;;;;;;;10.00;99.90;;;;;;5026917;28;19920;-65
2023/03/25 06:09:45;;;;;;;;;;;9.90;99.90;;;;;;5027443;28;20004;-63
2023/03/25 06:12:14;;;;;;;;;;;10.00;99.90;;;;;;5024066;28;19917;-62
2023/03/25 06:14:41;;;;;;;;;;;10.00;99.90;;;;;;5025283;28;19920;-63
2023/03/25 06:17:08;;;;;;;;;;;10.00;99.90;;;;;;5025232;28;19940;-63
2023/03/25 06:19:37;;;;;;;;;;;10.00;99.90;;;;;;5026248;28;20007;-63
2023/03/25 06:22:08;;;;;;;;;;;10.10;99.90;;;;;;5026734;28;19924;-62
2023/03/25 06:24:36;;;;;;;;;;;10.00;99.90;;;;;;5028829;28;19917;-63
2023/03/25 06:27:07;;;;;;;;;;;10.10;99.90;;;;;;5028696;28;19996;-62
2023/03/25 06:29:33;;;;;;;;;;;10.10;99.90;;;;;;5024184;28;19928;-62
2023/03/25 06:31:59;;;;;;;;;;;10.10;99.90;;;;;;5017759;28;19921;-65
2023/03/25 06:34:25;;;;;;;;;;;10.10;99.90;;;;;;5023920;28;19913;-62
2023/03/25 06:36:52;;;;;;;;;;;10.10;99.90;;;;;;5024649;28;20008;-62
2023/03/25 06:39:18;;;;;;;;;;;10.20;99.90;;;;;;5028588;28;19913;-64
2023/03/25 06:41:44;;;;;;;;;;;10.20;99.90;;;;;;5031077;28;19959;-63
2023/03/25 06:44:09;;;;;;;;;;;10.30;99.90;;;;;;5028125;28;19963;-63
2023/03/25 06:46:35;;;;;;;;;;;10.30;99.90;;;;;;5030644;28;20303;-64
2023/03/25 06:49:00;;;;;;;;;;;10.30;99.90;;;;;;5033088;28;19924;-65
2023/03/25 06:51:26;;;;;;;;;;;10.40;99.90;;;;;;5031852;28;20410;-64
2023/03/25 06:53:51;;;;;;;;;;;10.40;99.90;;;;;;5033116;28;19910;-64
2023/03/25 06:56:17;;;;;;;;;;;10.50;99.90;;;;;;5030474;28;20422;-64
2023/03/25 06:58:43;;;;;;;;;;;10.50;99.90;;;;;;5028015;28;19922;-64
2023/03/25 07:01:08;;;;;;;;;;;10.40;99.90;;;;;;5029184;28;19929;-63
2023/03/25 07:03:35;;;;;;;;;;;10.10;99.90;;;;;;5031207;28;20248;-65
2023/03/25 07:06:00;;;;;;;;;;;10.00;99.90;;;;;;5028323;28;19944;-64
2023/03/25 07:08:26;;;;;;;;;;;9.80;99.90;;;;;;5029268;28;20387;-65
2023/03/25 07:10:52;;;;;;;;;;;9.70;99.90;;;;;;5029784;28;19924;-65
2023/03/25 07:13:17;;;;;;;;;;;9.70;99.90;;;;;;5028246;28;20007;-65
2023/03/25 07:15:42;;;;;;;;;;;9.70;99.90;;;;;;5031863;28;19913;-65
2023/03/25 07:18:08;;;;;;;;;;;9.70;99.90;;;;;;5030596;28;19913;-65
2023/03/25 07:20:33;;;;;;;;;;;9.70;99.90;;;;;;5024930;28;19921;-65
2023/03/25 07:22:59;;;;;;;;;;;9.80;99.90;;;;;;5030934;28;19954;-65
2023/03/25 07:25:24;;;;;;;;;;;9.70;99.90;;;;;;5029049;28;19920;-65
2023/03/25 07:27:50;;;;;;;;;;;9.70;99.90;;;;;;5032366;28;19920;-65
2023/03/25 07:30:15;;;;;;;;;;;9.80;99.90;;;;;;5028754;28;19913;-65
2023/03/25 07:32:42;;;;;;;;;;;9.80;99.90;;;;;;5029690;28;19925;-65
2023/03/25 07:35:08;;;;;;;;;;;9.80;99.90;;;;;;5028217;28;19913;-64
2023/03/25 07:37:34;;;;;;;;;;;10.00;99.90;;;;;;5030813;28;19917;-65
2023/03/25 07:39:59;;;;;;;;;;;10.00;99.90;;;;;;5028150;28;19928;-65
2023/03/25 07:42:25;;;;;;;;;;;10.00;99.90;;;;;;5028787;28;19922;-64
2023/03/25 07:44:50;;;;;;;;;;;10.10;99.90;;;;;;5027408;28;19985;-64
2023/03/25 07:47:16;;;;;;;;;;;10.20;99.90;;;;;;5024856;28;19936;-64
2023/03/25 07:49:42;;;;;;;;;;;10.30;99.90;;;;;;5028379;28;20062;-65
2023/03/25 07:52:08;;;;;;;;;;;10.10;99.90;;;;;;5027770;28;19921;-64
2023/03/25 07:54:34;;;;;;;;;;;9.90;99.90;;;;;;5029346;28;19920;-65
2023/03/25 07:57:00;;;;;;;;;;;9.90;99.90;;;;;;5026763;28;19917;-65
2023/03/25 07:59:25;;;;;;;;;;;9.90;99.90;;;;;;5026883;28;19923;-64
2023/03/25 08:01:51;;;;;;;;;;;9.90;99.90;;;;;;5026983;28;19948;-64
2023/03/25 08:04:17;;;;;;;;;;;10.00;99.90;;;;;;5027330;28;19913;-64
2023/03/25 08:06:42;;;;;;;;;;;10.00;99.90;;;;;;5028716;28;20728;-63
2023/03/25 08:09:08;;;;;;;;;;;10.00;99.90;;;;;;5030212;28;19913;-65
2023/03/25 08:11:33;;;;;;;;;;;10.00;99.90;;;;;;5025476;28;19925;-65
2023/03/25 08:13:58;;;;;;;;;;;10.00;99.90;;;;;;5029541;28;19919;-65
2023/03/25 08:16:24;;;;;;;;;;;10.00;99.90;;;;;;5029097;28;19913;-65
2023/03/25 08:18:51;;;;;;;;;;;10.00;99.90;;;;;;5030010;28;20008;-65
2023/03/25 08:21:23;;;;;;;;;;;10.10;99.90;;;;;;5027772;28;19913;-65
2023/03/25 08:24:01;;;;;;;;;;;10.10;99.90;;;;;;5028074;28;19967;-64
2023/03/25 08:26:30;;;;;;;;;;;10.10;99.90;;;;;;5029195;28;20000;-65
2023/03/25 08:28:56;;;;;;;;;;;10.20;99.90;;;;;;5025555;28;20011;-65
2023/03/25 08:31:29;;;;;;;;;;;10.30;99.90;;;;;;5030621;28;19917;-65
2023/03/25 08:34:05;;;;;;;;;;;10.40;99.90;;;;;;5027579;28;19917;-65
2023/03/25 08:36:30;;;;;;;;;;;10.50;99.90;;;;;;5027521;28;19948;-65
2023/03/25 08:38:56;;;;;;;;;;;10.70;99.90;;;;;;5028985;28;19948;-63
2023/03/25 08:41:22;;;;;;;;;;;10.90;99.90;;;;;;5027487;28;20457;-64
2023/03/25 08:43:47;;;;;;;;;;;10.90;99.90;;;;;;5028834;28;19913;-65
2023/03/25 08:46:13;;;;;;;;;;;10.80;99.90;;;;;;5030352;28;19913;-65
2023/03/25 08:48:38;;;;;;;;;;;10.70;99.90;;;;;;5027630;28;19967;-65
2023/03/25 08:51:05;;;;;;;;;;;10.70;99.90;;;;;;5027178;28;20046;-64
2023/03/25 08:53:30;;;;;;;;;;;10.70;99.90;;;;;;5027102;28;19913;-65
2023/03/25 08:55:56;;;;;;;;;;;10.80;99.90;;;;;;5025073;28;19917;-65
2023/03/25 08:58:23;;;;;;;;;;;10.90;99.90;;;;;;5025881;28;20010;-64
2023/03/25 09:00:52;;;;;;;;;;;10.90;99.90;;;;;;5024792;28;20413;-64
2023/03/25 09:03:17;;;;;;;;;;;10.90;99.90;;;;;;5022288;28;19928;-65
2023/03/25 09:05:43;;;;;;;;;;;10.80;99.90;;;;;;5024853;28;19917;-58
2023/03/25 09:08:08;;;;;;;;;;;10.90;99.90;;;;;;5027950;28;19917;-57
2023/03/25 09:10:34;;;;;;;;;;;10.90;99.90;;;;;;5023926;28;20001;-59
2023/03/25 09:12:59;;;;;;;;;;;10.90;99.90;;;;;;5026495;28;20023;-57
2023/03/25 09:15:25;;;;;;;;;;;10.90;99.90;;;;;;5023261;28;19944;-56
2023/03/25 09:17:50;;;;;;;;;;;10.90;99.90;;;;;;5030589;28;19971;-57
2023/03/25 09:20:17;;;;;;;;;;;11.00;99.90;;;;;;5024399;28;19913;-56
2023/03/25 09:22:43;;;;;;;;;;;11.10;99.90;;;;;;5024395;28;19914;-57
2023/03/25 09:25:08;;;;;;;;;;;11.10;99.90;;;;;;5026286;28;19913;-58
2023/03/25 09:27:34;;;;;;;;;;;11.10;99.90;;;;;;5028848;28;19913;-58
2023/03/25 09:29:59;;;;;;;;;;;11.10;99.90;;;;;;5024734;28;19913;-58
2023/03/25 09:32:25;;;;;;;;;;;11.10;99.90;;;;;;5030027;28;19916;-57
2023/03/25 09:34:50;;;;;;;;;;;11.20;99.90;;;;;;5025671;28;19917;-58
2023/03/25 09:37:16;;;;;;;;;;;11.20;99.90;;;;;;5026548;28;20248;-60
2023/03/25 09:39:42;;;;;;;;;;;11.20;99.90;;;;;;5026517;28;19921;-56
2023/03/25 09:42:25;;;;;;;;;;;11.30;99.90;;;;;;5027671;28;20363;-54
2023/03/25 09:44:55;;;;;;;;;;;11.40;99.90;;;;;;5023642;28;20437;-57
2023/03/25 09:47:21;;;;;;;;;;;11.60;99.90;;;;;;5025855;28;20351;-56
2023/03/25 09:49:52;;;;;;;;;;;11.60;99.90;;;;;;5026862;28;20376;-56
2023/03/25 09:52:22;;;;;;;;;;;11.60;99.90;;;;;;5023242;28;19971;-57
2023/03/25 09:54:50;;;;;;;;;;;11.60;99.90;;;;;;5024245;28;19914;-58
2023/03/25 09:57:25;;;;;;;;;;;11.50;99.90;;;;;;5027154;28;20402;-55
2023/03/25 09:59:52;;;;;;;;;;;11.60;99.90;;;;;;5027897;28;19924;-58
2023/03/25 10:02:25;;;;;;;;;;;11.70;99.90;;;;;;5024093;28;20002;-60
2023/03/25 10:05:13;;;;;;;;;;;11.80;99.90;;;;;;5022230;28;19913;-59
2023/03/25 10:07:41;;;;;;;;;;;11.90;99.90;;;;;;5024575;28;19964;-54
2023/03/25 10:10:19;;;;;;;;;;;12.00;99.90;;;;;;5025409;28;19921;-55
2023/03/25 10:12:59;;;;;;;;;;;11.90;99.90;;;;;;5029065;28;19917;-57
2023/03/25 10:15:29;;;;;;;;;;;11.70;99.90;;;;;;5023579;28;19982;-53
2023/03/25 10:17:57;;;;;;;;;;;11.70;99.90;;;;;;5025305;28;19913;-57
2023/03/25 10:20:42;;;;;;;;;;;11.70;99.90;;;;;;5023633;28;19917;-55
2023/03/25 10:23:20;;;;;;;;;;;11.80;99.90;;;;;;5031114;28;19967;-57
2023/03/25 10:25:48;;;;;;;;;;;11.70;99.90;;;;;;5025451;28;20393;-57
2023/03/25 10:28:34;;;;;;;;;;;11.60;99.90;;;;;;5029407;28;20008;-57
2023/03/25 10:31:01;;;;;;;;;;;11.40;99.90;;;;;;5030449;28;19914;-55
2023/03/25 10:33:33;;;;;;;;;;;11.30;99.90;;;;;;5027960;28;19959;-57
2023/03/25 10:36:00;;;;;;;;;;;11.00;99.90;;;;;;5027162;28;19917;-56
2023/03/25 10:38:29;;;;;;;;;;;10.90;99.90;;;;;;5030589;28;20309;-54
2023/03/25 10:41:14;;;;;;;;;;;10.90;99.90;;;;;;5028486;28;19921;-54
2023/03/25 10:43:41;;;;;;;;;;;10.90;99.90;;;;;;5019858;28;19975;-55
2023/03/25 10:46:24;;;;;;;;;;;11.40;99.90;;;;;;5029890;28;19913;-54
2023/03/25 10:48:50;;;;;;;;;;;11.80;99.90;;;;;;5028474;28;19945;-55
2023/03/25 10:51:16;;;;;;;;;;;12.10;99.90;;;;;;5027119;28;21919;-57
2023/03/25 10:53:45;;;;;;;;;;;12.10;99.90;;;;;;5023590;28;19925;-56
2023/03/25 10:56:12;;;;;;;;;;;12.10;99.90;;;;;;5026039;28;20291;-54
2023/03/25 10:58:38;;;;;;;;;;;12.20;99.90;;;;;;5029828;28;19948;-58
2023/03/25 11:01:09;;;;;;;;;;;12.20;99.90;;;;;;5030105;28;19921;-57
2023/03/25 11:03:35;;;;;;;;;;;11.90;99.90;;;;;;5024661;28;19927;-58
2023/03/25 11:06:01;;;;;;;;;;;11.50;99.90;;;;;;5026679;28;19917;-59
2023/03/25 11:08:26;;;;;;;;;;;11.20;99.90;;;;;;5026571;28;19921;-59
2023/03/25 11:10:56;;;;;;;;;;;11.10;99.90;;;;;;5027333;28;20191;-58
2023/03/25 11:13:29;;;;;;;;;;;11.10;99.90;;;;;;5025619;28;19922;-58
2023/03/25 11:16:00;;;;;;;;;;;11.10;99.90;;;;;;5029224;28;19919;-59
2023/03/25 11:18:30;;;;;;;;;;;11.20;99.90;;;;;;5026969;28;19960;-59
2023/03/25 11:20:59;;;;;;;;;;;11.40;99.90;;;;;;5027330;28;19913;-58
2023/03/25 11:23:26;;;;;;;;;;;11.70;99.90;;;;;;5021090;28;20682;-56
2023/03/25 11:25:52;;;;;;;;;;;12.00;99.90;;;;;;5023348;28;20000;-60
2023/03/25 11:28:21;;;;;;;;;;;12.40;99.90;;;;;;5026563;28;19952;-58
2023/03/25 11:31:06;;;;;;;;;;;12.60;99.90;;;;;;5025247;28;20016;-56
2023/03/25 11:33:31;;;;;;;;;;;12.90;99.90;;;;;;5026642;28;19926;-59
2023/03/25 11:36:08;;;;;;;;;;;13.00;99.90;;;;;;5025947;28;19913;-58
2023/03/25 11:38:36;;;;;;;;;;;13.00;99.90;;;;;;5021946;28;20582;-56
2023/03/25 11:41:02;;;;;;;;;;;12.80;99.90;;;;;;5022900;28;19917;-58
2023/03/25 11:43:34;;;;;;;;;;;12.50;99.90;;;;;;5025820;28;19924;-57
2023/03/25 11:46:19;;;;;;;;;;;12.60;99.90;;;;;;5025482;28;19913;-55
2023/03/25 11:48:45;;;;;;;;;;;12.80;99.90;;;;;;5025308;28;20003;-58
2023/03/25 11:51:13;;;;;;;;;;;13.20;99.90;;;;;;5029191;28;19944;-59
2023/03/25 11:53:42;;;;;;;;;;;13.50;99.90;;;;;;5019966;28;19913;-55
2023/03/25 11:56:14;;;;;;;;;;;13.30;99.90;;;;;;5022630;28;19925;-55
2023/03/25 11:58:40;;;;;;;;;;;13.30;99.90;;;;;;5027333;28;19917;-60
2023/03/25 12:01:16;;;;;;;;;;;13.60;99.90;;;;;;5025330;28;19917;-59
2023/03/25 12:03:43;;;;;;;;;;;13.50;99.90;;;;;;5029695;28;20431;-61
2023/03/25 12:06:11;;;;;;;;;;;13.90;99.90;;;;;;5027856;28;19913;-56
2023/03/25 12:09:03;;;;;;;;;;;13.60;99.90;;;;;;5026994;28;19917;-57
2023/03/25 12:11:31;;;;;;;;;;;13.60;99.90;;;;;;5020251;28;19921;-57
2023/03/25 12:13:56;;;;;;;;;;;13.70;99.90;;;;;;5027695;28;19933;-58
2023/03/25 12:16:40;;;;;;;;;;;13.50;99.90;;;;;;5027169;28;19913;-57
2023/03/25 12:19:12;;;;;;;;;;;13.60;99.90;;;;;;5025854;28;20008;-57
2023/03/25 12:21:56;;;;;;;;;;;13.70;99.90;;;;;;5025659;28;19917;-58
2023/03/25 12:24:35;;;;;;;;;;;14.00;99.90;;;;;;5024500;28;19920;-56
2023/03/25 12:27:00;;;;;;;;;;;13.90;99.90;;;;;;5029903;28;19913;-57
2023/03/25 12:29:26;;;;;;;;;;;14.20;99.90;;;;;;5029074;28;20466;-56
2023/03/25 12:31:57;;;;;;;;;;;14.70;99.90;;;;;;5026650;28;19920;-54
2023/03/25 12:34:26;;;;;;;;;;;14.90;99.90;;;;;;5026221;28;19917;-56
2023/03/25 12:37:08;;;;;;;;;;;15.00;99.90;;;;;;5029062;28;19917;-56
2023/03/25 12:39:42;;;;;;;;;;;14.90;99.90;;;;;;5023216;28;19920;-56
2023/03/25 12:42:22;;;;;;;;;;;14.60;99.90;;;;;;5028159;28;19913;-57
2023/03/25 12:45:00;;;;;;;;;;;14.90;99.90;;;;;;5025786;28;19943;-57
2023/03/25 12:47:32;;;;;;;;;;;14.90;99.90;;;;;;5027020;28;19913;-60
2023/03/25 12:50:18;;;;;;;;;;;15.00;99.90;;;;;;5024405;28;19920;-57
2023/03/25 12:53:03;;;;;;;;;;;15.20;99.90;;;;;;5028613;28;20374;-56
2023/03/25 12:55:44;;;;;;;;;;;15.40;99.90;;;;;;5018745;28;19929;-58
2023/03/25 12:58:13;;;;;;;;;;;15.40;99.90;;;;;;5024643;28;19913;-55
2023/03/25 13:00:38;;;;;;;;;;;15.30;99.90;;;;;;5024895;28;19913;-55
2023/03/25 13:03:23;;;;;;;;;;;15.00;99.90;;;;;;5022458;28;21403;-55
2023/03/25 13:06:07;;;;;;;;;;;15.00;99.90;;;;;;5026092;28;19919;-58
2023/03/25 13:08:32;;;;;;;;;;;15.40;99.90;;;;;;5022854;28;19988;-57
2023/03/25 13:11:14;;;;;;;;;;;15.90;99.90;;;;;;5023087;28;20007;-56
2023/03/25 13:13:40;;;;;;;;;;;15.60;99.90;;;;;;5023868;28;19939;-55
2023/03/25 13:16:08;;;;;;;;;;;15.40;99.90;;;;;;5025952;28;20339;-57
2023/03/25 13:18:46;;;;;;;;;;;14.90;99.90;;;;;;5024101;28;19920;-58
2023/03/25 13:21:20;;;;;;;;;;;14.40;99.90;;;;;;5022594;28;19932;-55
2023/03/25 13:23:49;;;;;;;;;;;14.10;99.90;;;;;;5025449;28;20270;-60
2023/03/25 13:26:20;;;;;;;;;;;14.20;99.90;;;;;;5023449;28;19917;-57
2023/03/25 13:28:48;;;;;;;;;;;14.20;99.90;;;;;;5029124;28;19913;-55
2023/03/25 13:31:18;;;;;;;;;;;14.10;99.90;;;;;;5023959;28;19919;-56
2023/03/25 13:33:47;;;;;;;;;;;14.10;99.90;;;;;;5027138;28;19953;-60
2023/03/25 13:36:16;;;;;;;;;;;14.00;99.90;;;;;;5026481;28;19928;-56
2023/03/25 13:38:45;;;;;;;;;;;13.90;99.90;;;;;;5026058;28;20387;-56
2023/03/25 13:41:15;;;;;;;;;;;13.80;99.90;;;;;;5025947;28;20352;-59
2023/03/25 13:43:41;;;;;;;;;;;13.70;99.90;;;;;;5028191;28;19917;-58
2023/03/25 13:46:09;;;;;;;;;;;13.70;99.90;;;;;;5028497;28;20394;-57
2023/03/25 13:48:44;;;;;;;;;;;13.50;99.90;;;;;;5027748;28;19921;-56
2023/03/25 13:51:10;;;;;;;;;;;13.30;99.90;;;;;;5032031;28;19944;-57
2023/03/25 13:53:40;;;;;;;;;;;13.00;99.90;;;;;;5027248;28;19956;-58
2023/03/25 13:56:07;;;;;;;;;;;;;;;;;;5028903;28;19917;-57
2023/03/25 13:58:39;;;;;;;;;;;12.90;99.90;;;;;;5029604;28;20004;-56
2023/03/25 14:01:07;;;;;;;;;;;11.70;99.90;;;;;;5028609;28;19964;-58
2023/03/25 14:03:52;;;;;;;;;;;11.10;99.90;;;;;;5029199;28;20465;-57
2023/03/25 14:06:29;;;;;;;;;;;10.60;99.90;;;;;;5023794;28;19979;-55
2023/03/25 14:09:01;;;;;;;;;;;10.50;99.90;;;;;;5028861;28;19924;-57
2023/03/25 14:11:27;;;;;;;;;;;10.50;99.90;;;;;;5029435;28;21670;-58
2023/03/25 14:13:53;;;;;;;;;;;10.30;99.90;;;;;;5029253;28;19948;-57
2023/03/25 14:16:21;;;;;;;;;;;10.30;99.90;;;;;;5029455;28;19920;-58
2023/03/25 14:18:52;;;;;;;;;;;10.20;99.90;;;;;;5030221;28;19920;-60
2023/03/25 14:21:21;;;;;;;;;;;10.40;99.90;;;;;;5031456;28;19921;-55
2023/03/25 14:23:47;;;;;;;;;;;10.70;99.90;;;;;;5029357;28;19967;-58
2023/03/25 14:26:16;;;;;;;;;;;10.80;99.90;;;;;;5026749;28;19931;-58
2023/03/25 14:28:42;;;;;;;;;;;10.80;99.90;;;;;;5034724;28;19917;-58
2023/03/25 14:31:31;;;;;;;;;;;10.80;99.90;;;;;;5030540;28;19945;-56
2023/03/25 14:34:03;;;;;;;;;;;10.90;99.90;;;;;;5026730;28;19944;-57